sensor_id;sensor_type;location;lat;lon;timestamp;P1;durP1;ratioP1;P2;durP2;ratioP2
64903;SDS011;51401;48.882;12.598;2022-09-01T00:01:48;7.93;;;6.68;;
64903;SDS011;51401;48.882;12.598;2022-09-01T00:04:16;6.90;;;6.18;;
64903;SDS011;51401;48.882;12.598;2022-09-01T00:06:45;9.57;;;7.15;;
64903;SDS011;51401;48.882;12.598;2022-09-01T00:09:13;6.88;;;6.18;;
64903;SDS011;51401;48.882;12.598;2022-09-01T00:11:42;7.87;;;7.07;;
64903;SDS011;51401;48.882;12.598;2022-09-01T00:14:11;8.02;;;5.85;;
64903;SDS011;51401;48.882;12.598;2022-09-01T00:16:38;6.43;;;5.82;;
64903;SDS011;51401;48.882;12.598;2022-09-01T00:19:04;9.02;;;6.57;;
64903;SDS011;51401;48.882;12.598;2022-09-01T00:21:31;7.75;;;6.28;;
64903;SDS011;51401;48.882;12.598;2022-09-01T00:24:00;6.55;;;5.95;;
64903;SDS011;51401;48.882;12.598;2022-09-01T00:26:26;7.80;;;6.28;;
64903;SDS011;51401;48.882;12.598;2022-09-01T00:28:52;7.47;;;6.68;;
64903;SDS011;51401;48.882;12.598;2022-09-01T00:31:17;7.72;;;6.53;;
64903;SDS011;51401;48.882;12.598;2022-09-01T00:33:44;7.50;;;6.70;;
64903;SDS011;51401;48.882;12.598;2022-09-01T00:36:10;7.45;;;6.75;;
64903;SDS011;51401;48.882;12.598;2022-09-01T00:38:36;10.70;;;7.05;;
64903;SDS011;51401;48.882;12.598;2022-09-01T00:41:02;7.75;;;6.80;;
64903;SDS011;51401;48.882;12.598;2022-09-01T00:43:49;7.82;;;6.35;;
64903;SDS011;51401;48.882;12.598;2022-09-01T00:46:28;7.25;;;6.50;;
64903;SDS011;51401;48.882;12.598;2022-09-01T00:51:41;8.65;;;7.03;;
64903;SDS011;51401;48.882;12.598;2022-09-01T00:54:11;8.85;;;7.95;;
64903;SDS011;51401;48.882;12.598;2022-09-01T00:56:39;8.43;;;7.53;;
64903;SDS011;51401;48.882;12.598;2022-09-01T00:59:06;8.55;;;7.65;;
64903;SDS011;51401;48.882;12.598;2022-09-01T01:01:33;9.25;;;7.47;;
64903;SDS011;51401;48.882;12.598;2022-09-01T01:04:01;8.70;;;7.68;;
64903;SDS011;51401;48.882;12.598;2022-09-01T01:06:28;8.88;;;7.95;;
64903;SDS011;51401;48.882;12.598;2022-09-01T01:08:57;9.23;;;7.30;;
64903;SDS011;51401;48.882;12.598;2022-09-01T01:11:25;8.48;;;7.50;;
64903;SDS011;51401;48.882;12.598;2022-09-01T01:14:03;9.45;;;7.90;;
64903;SDS011;51401;48.882;12.598;2022-09-01T01:16:34;8.82;;;7.28;;
64903;SDS011;51401;48.882;12.598;2022-09-01T01:19:00;8.73;;;7.65;;
64903;SDS011;51401;48.882;12.598;2022-09-01T01:21:34;9.70;;;8.25;;
64903;SDS011;51401;48.882;12.598;2022-09-01T01:24:22;9.93;;;8.18;;
64903;SDS011;51401;48.882;12.598;2022-09-01T01:26:58;10.48;;;7.47;;
64903;SDS011;51401;48.882;12.598;2022-09-01T01:29:30;10.82;;;7.90;;
64903;SDS011;51401;48.882;12.598;2022-09-01T01:31:58;9.23;;;8.23;;
64903;SDS011;51401;48.882;12.598;2022-09-01T01:34:26;8.90;;;7.78;;
64903;SDS011;51401;48.882;12.598;2022-09-01T01:36:51;7.78;;;6.93;;
64903;SDS011;51401;48.882;12.598;2022-09-01T01:39:18;10.13;;;8.13;;
64903;SDS011;51401;48.882;12.598;2022-09-01T01:41:47;9.93;;;8.60;;
64903;SDS011;51401;48.882;12.598;2022-09-01T01:44:16;8.63;;;7.70;;
64903;SDS011;51401;48.882;12.598;2022-09-01T01:46:46;11.18;;;8.20;;
64903;SDS011;51401;48.882;12.598;2022-09-01T01:49:14;8.63;;;7.47;;
64903;SDS011;51401;48.882;12.598;2022-09-01T01:54:11;9.82;;;7.28;;
64903;SDS011;51401;48.882;12.598;2022-09-01T01:56:37;8.95;;;7.60;;
64903;SDS011;51401;48.882;12.598;2022-09-01T01:59:06;10.20;;;8.00;;
64903;SDS011;51401;48.882;12.598;2022-09-01T02:01:37;8.32;;;7.53;;
64903;SDS011;51401;48.882;12.598;2022-09-01T02:04:03;9.15;;;8.00;;
64903;SDS011;51401;48.882;12.598;2022-09-01T02:06:31;9.43;;;7.85;;
64903;SDS011;51401;48.882;12.598;2022-09-01T02:08:58;11.50;;;8.35;;
64903;SDS011;51401;48.882;12.598;2022-09-01T02:11:27;8.90;;;7.80;;
64903;SDS011;51401;48.882;12.598;2022-09-01T02:16:24;8.30;;;7.38;;
64903;SDS011;51401;48.882;12.598;2022-09-01T02:18:52;10.80;;;7.82;;
64903;SDS011;51401;48.882;12.598;2022-09-01T02:21:18;8.43;;;7.15;;
64903;SDS011;51401;48.882;12.598;2022-09-01T02:23:51;11.02;;;8.48;;
64903;SDS011;51401;48.882;12.598;2022-09-01T02:26:23;9.18;;;7.90;;
64903;SDS011;51401;48.882;12.598;2022-09-01T02:28:54;10.18;;;8.85;;
64903;SDS011;51401;48.882;12.598;2022-09-01T02:31:19;9.48;;;7.78;;
64903;SDS011;51401;48.882;12.598;2022-09-01T02:33:46;8.57;;;7.70;;
64903;SDS011;51401;48.882;12.598;2022-09-01T02:36:12;10.45;;;8.73;;
64903;SDS011;51401;48.882;12.598;2022-09-01T02:38:40;9.77;;;8.15;;
64903;SDS011;51401;48.882;12.598;2022-09-01T02:41:08;10.05;;;8.57;;
64903;SDS011;51401;48.882;12.598;2022-09-01T02:43:34;9.48;;;8.15;;
64903;SDS011;51401;48.882;12.598;2022-09-01T02:46:00;7.72;;;6.72;;
64903;SDS011;51401;48.882;12.598;2022-09-01T02:48:27;9.95;;;7.65;;
64903;SDS011;51401;48.882;12.598;2022-09-01T02:50:57;8.35;;;7.55;;
64903;SDS011;51401;48.882;12.598;2022-09-01T02:53:25;10.32;;;8.15;;
64903;SDS011;51401;48.882;12.598;2022-09-01T02:55:51;9.35;;;7.55;;
64903;SDS011;51401;48.882;12.598;2022-09-01T02:58:16;9.40;;;7.72;;
64903;SDS011;51401;48.882;12.598;2022-09-01T03:00:44;9.18;;;7.32;;
64903;SDS011;51401;48.882;12.598;2022-09-01T03:03:10;8.52;;;7.63;;
64903;SDS011;51401;48.882;12.598;2022-09-01T03:05:37;9.30;;;8.40;;
64903;SDS011;51401;48.882;12.598;2022-09-01T03:08:04;10.27;;;7.70;;
64903;SDS011;51401;48.882;12.598;2022-09-01T03:10:35;8.60;;;7.53;;
64903;SDS011;51401;48.882;12.598;2022-09-01T03:13:13;7.70;;;6.70;;
64903;SDS011;51401;48.882;12.598;2022-09-01T03:15:40;8.98;;;7.38;;
64903;SDS011;51401;48.882;12.598;2022-09-01T03:18:07;9.85;;;6.95;;
64903;SDS011;51401;48.882;12.598;2022-09-01T03:20:34;9.65;;;7.20;;
64903;SDS011;51401;48.882;12.598;2022-09-01T03:23:02;8.73;;;7.82;;
64903;SDS011;51401;48.882;12.598;2022-09-01T03:27:57;7.75;;;6.93;;
64903;SDS011;51401;48.882;12.598;2022-09-01T03:30:25;7.45;;;6.53;;
64903;SDS011;51401;48.882;12.598;2022-09-01T03:32:51;9.80;;;8.02;;
64903;SDS011;51401;48.882;12.598;2022-09-01T03:35:17;7.07;;;6.30;;
64903;SDS011;51401;48.882;12.598;2022-09-01T03:37:42;7.95;;;7.13;;
64903;SDS011;51401;48.882;12.598;2022-09-01T03:40:09;7.68;;;6.22;;
64903;SDS011;51401;48.882;12.598;2022-09-01T03:42:36;8.38;;;6.90;;
64903;SDS011;51401;48.882;12.598;2022-09-01T03:45:02;7.90;;;6.65;;
64903;SDS011;51401;48.882;12.598;2022-09-01T03:47:33;7.40;;;6.32;;
64903;SDS011;51401;48.882;12.598;2022-09-01T03:50:11;7.72;;;6.70;;
64903;SDS011;51401;48.882;12.598;2022-09-01T03:52:47;8.75;;;6.88;;
64903;SDS011;51401;48.882;12.598;2022-09-01T03:55:16;7.22;;;6.30;;
64903;SDS011;51401;48.882;12.598;2022-09-01T03:57:47;7.80;;;6.35;;
64903;SDS011;51401;48.882;12.598;2022-09-01T04:00:13;8.35;;;6.90;;
64903;SDS011;51401;48.882;12.598;2022-09-01T04:02:49;9.10;;;7.47;;
64903;SDS011;51401;48.882;12.598;2022-09-01T04:05:19;8.80;;;6.47;;
64903;SDS011;51401;48.882;12.598;2022-09-01T04:07:47;7.18;;;6.30;;
64903;SDS011;51401;48.882;12.598;2022-09-01T04:10:14;7.43;;;6.60;;
64903;SDS011;51401;48.882;12.598;2022-09-01T04:12:40;11.90;;;7.28;;
64903;SDS011;51401;48.882;12.598;2022-09-01T04:15:05;7.97;;;7.18;;
64903;SDS011;51401;48.882;12.598;2022-09-01T04:17:32;8.30;;;6.63;;
64903;SDS011;51401;48.882;12.598;2022-09-01T04:20:16;7.55;;;6.72;;
64903;SDS011;51401;48.882;12.598;2022-09-01T04:22:44;8.13;;;6.90;;
64903;SDS011;51401;48.882;12.598;2022-09-01T04:27:40;7.00;;;6.30;;
64903;SDS011;51401;48.882;12.598;2022-09-01T04:30:06;8.10;;;6.60;;
64903;SDS011;51401;48.882;12.598;2022-09-01T04:32:35;8.25;;;7.30;;
64903;SDS011;51401;48.882;12.598;2022-09-01T04:35:02;8.18;;;6.75;;
64903;SDS011;51401;48.882;12.598;2022-09-01T04:37:28;8.77;;;6.88;;
64903;SDS011;51401;48.882;12.598;2022-09-01T04:39:54;10.45;;;7.25;;
64903;SDS011;51401;48.882;12.598;2022-09-01T04:42:21;8.40;;;6.63;;
64903;SDS011;51401;48.882;12.598;2022-09-01T04:44:48;9.70;;;7.50;;
64903;SDS011;51401;48.882;12.598;2022-09-01T04:47:14;8.88;;;7.13;;
64903;SDS011;51401;48.882;12.598;2022-09-01T04:49:42;8.48;;;6.88;;
64903;SDS011;51401;48.882;12.598;2022-09-01T04:52:09;8.73;;;7.82;;
64903;SDS011;51401;48.882;12.598;2022-09-01T04:54:36;8.30;;;7.45;;
64903;SDS011;51401;48.882;12.598;2022-09-01T04:57:02;8.88;;;6.85;;
64903;SDS011;51401;48.882;12.598;2022-09-01T04:59:30;7.93;;;6.75;;
64903;SDS011;51401;48.882;12.598;2022-09-01T05:01:56;8.65;;;7.35;;
64903;SDS011;51401;48.882;12.598;2022-09-01T05:04:25;7.28;;;6.05;;
64903;SDS011;51401;48.882;12.598;2022-09-01T05:06:53;8.77;;;7.47;;
64903;SDS011;51401;48.882;12.598;2022-09-01T05:09:23;8.10;;;6.65;;
64903;SDS011;51401;48.882;12.598;2022-09-01T05:11:49;7.50;;;6.70;;
64903;SDS011;51401;48.882;12.598;2022-09-01T05:14:15;9.02;;;7.20;;
64903;SDS011;51401;48.882;12.598;2022-09-01T05:16:42;8.35;;;7.32;;
64903;SDS011;51401;48.882;12.598;2022-09-01T05:19:09;7.05;;;6.18;;
64903;SDS011;51401;48.882;12.598;2022-09-01T05:21:38;7.93;;;7.13;;
64903;SDS011;51401;48.882;12.598;2022-09-01T05:24:09;9.32;;;6.85;;
64903;SDS011;51401;48.882;12.598;2022-09-01T05:26:39;6.88;;;6.00;;
64903;SDS011;51401;48.882;12.598;2022-09-01T05:29:05;9.00;;;6.90;;
64903;SDS011;51401;48.882;12.598;2022-09-01T05:31:42;7.70;;;6.60;;
64903;SDS011;51401;48.882;12.598;2022-09-01T05:34:09;7.90;;;7.10;;
64903;SDS011;51401;48.882;12.598;2022-09-01T05:36:36;8.10;;;6.90;;
64903;SDS011;51401;48.882;12.598;2022-09-01T05:39:06;9.15;;;7.30;;
64903;SDS011;51401;48.882;12.598;2022-09-01T05:41:33;9.23;;;6.75;;
64903;SDS011;51401;48.882;12.598;2022-09-01T05:44:00;7.28;;;6.30;;
64903;SDS011;51401;48.882;12.598;2022-09-01T05:46:26;7.60;;;6.60;;
64903;SDS011;51401;48.882;12.598;2022-09-01T05:48:53;7.78;;;6.60;;
64903;SDS011;51401;48.882;12.598;2022-09-01T05:51:20;5.93;;;5.28;;
64903;SDS011;51401;48.882;12.598;2022-09-01T05:53:50;6.38;;;5.78;;
64903;SDS011;51401;48.882;12.598;2022-09-01T05:56:16;7.18;;;6.47;;
64903;SDS011;51401;48.882;12.598;2022-09-01T05:58:43;8.30;;;6.20;;
64903;SDS011;51401;48.882;12.598;2022-09-01T06:01:15;6.30;;;5.70;;
64903;SDS011;51401;48.882;12.598;2022-09-01T06:03:46;8.10;;;5.68;;
64903;SDS011;51401;48.882;12.598;2022-09-01T06:06:14;7.63;;;6.65;;
64903;SDS011;51401;48.882;12.598;2022-09-01T06:08:40;6.32;;;5.72;;
64903;SDS011;51401;48.882;12.598;2022-09-01T06:11:07;7.30;;;6.57;;
64903;SDS011;51401;48.882;12.598;2022-09-01T06:13:39;6.55;;;5.85;;
64903;SDS011;51401;48.882;12.598;2022-09-01T06:16:06;6.55;;;5.90;;
64903;SDS011;51401;48.882;12.598;2022-09-01T06:18:33;6.45;;;5.85;;
64903;SDS011;51401;48.882;12.598;2022-09-01T06:20:59;8.57;;;5.97;;
64903;SDS011;51401;48.882;12.598;2022-09-01T06:23:28;6.15;;;5.55;;
64903;SDS011;51401;48.882;12.598;2022-09-01T06:25:54;7.03;;;6.32;;
64903;SDS011;51401;48.882;12.598;2022-09-01T06:28:19;6.47;;;5.25;;
64903;SDS011;51401;48.882;12.598;2022-09-01T06:30:47;6.78;;;6.00;;
64903;SDS011;51401;48.882;12.598;2022-09-01T06:33:14;7.10;;;6.40;;
64903;SDS011;51401;48.882;12.598;2022-09-01T06:35:40;7.43;;;6.63;;
64903;SDS011;51401;48.882;12.598;2022-09-01T06:38:09;6.43;;;5.80;;
64903;SDS011;51401;48.882;12.598;2022-09-01T06:40:36;6.57;;;5.97;;
64903;SDS011;51401;48.882;12.598;2022-09-01T06:43:03;6.85;;;6.20;;
64903;SDS011;51401;48.882;12.598;2022-09-01T06:45:32;6.68;;;5.97;;
64903;SDS011;51401;48.882;12.598;2022-09-01T06:48:05;6.85;;;6.25;;
64903;SDS011;51401;48.882;12.598;2022-09-01T06:50:31;7.53;;;6.43;;
64903;SDS011;51401;48.882;12.598;2022-09-01T06:52:56;8.77;;;7.15;;
64903;SDS011;51401;48.882;12.598;2022-09-01T06:55:33;6.57;;;5.95;;
64903;SDS011;51401;48.882;12.598;2022-09-01T06:58:02;7.75;;;6.90;;
64903;SDS011;51401;48.882;12.598;2022-09-01T07:00:29;7.68;;;6.88;;
64903;SDS011;51401;48.882;12.598;2022-09-01T07:02:55;8.85;;;7.13;;
64903;SDS011;51401;48.882;12.598;2022-09-01T07:05:22;7.78;;;6.25;;
64903;SDS011;51401;48.882;12.598;2022-09-01T07:07:49;8.88;;;7.20;;
64903;SDS011;51401;48.882;12.598;2022-09-01T07:10:19;8.27;;;7.38;;
64903;SDS011;51401;48.882;12.598;2022-09-01T07:12:49;7.72;;;6.90;;
64903;SDS011;51401;48.882;12.598;2022-09-01T07:15:20;7.63;;;6.82;;
64903;SDS011;51401;48.882;12.598;2022-09-01T07:17:54;7.68;;;6.88;;
64903;SDS011;51401;48.882;12.598;2022-09-01T07:20:24;7.10;;;6.40;;
64903;SDS011;51401;48.882;12.598;2022-09-01T07:22:53;7.25;;;6.47;;
64903;SDS011;51401;48.882;12.598;2022-09-01T07:25:20;7.28;;;6.00;;
64903;SDS011;51401;48.882;12.598;2022-09-01T07:27:45;6.75;;;5.85;;
64903;SDS011;51401;48.882;12.598;2022-09-01T07:30:15;5.85;;;5.25;;
64903;SDS011;51401;48.882;12.598;2022-09-01T07:32:42;5.90;;;5.22;;
64903;SDS011;51401;48.882;12.598;2022-09-01T07:35:09;6.15;;;5.55;;
64903;SDS011;51401;48.882;12.598;2022-09-01T07:37:35;5.63;;;5.13;;
64903;SDS011;51401;48.882;12.598;2022-09-01T07:40:05;6.10;;;5.13;;
64903;SDS011;51401;48.882;12.598;2022-09-01T07:42:32;5.10;;;4.70;;
64903;SDS011;51401;48.882;12.598;2022-09-01T07:44:58;5.40;;;4.90;;
64903;SDS011;51401;48.882;12.598;2022-09-01T07:47:24;5.85;;;5.25;;
64903;SDS011;51401;48.882;12.598;2022-09-01T07:49:49;6.15;;;5.47;;
64903;SDS011;51401;48.882;12.598;2022-09-01T07:52:14;6.53;;;5.43;;
64903;SDS011;51401;48.882;12.598;2022-09-01T07:54:40;6.80;;;6.10;;
64903;SDS011;51401;48.882;12.598;2022-09-01T07:57:06;5.43;;;4.93;;
64903;SDS011;51401;48.882;12.598;2022-09-01T07:59:31;6.00;;;5.50;;
64903;SDS011;51401;48.882;12.598;2022-09-01T08:01:59;5.93;;;5.40;;
64903;SDS011;51401;48.882;12.598;2022-09-01T08:06:55;6.82;;;5.32;;
64903;SDS011;51401;48.882;12.598;2022-09-01T08:09:21;6.18;;;5.57;;
64903;SDS011;51401;48.882;12.598;2022-09-01T08:11:47;6.00;;;5.40;;
64903;SDS011;51401;48.882;12.598;2022-09-01T08:14:12;6.10;;;5.50;;
64903;SDS011;51401;48.882;12.598;2022-09-01T08:16:37;7.80;;;5.80;;
64903;SDS011;51401;48.882;12.598;2022-09-01T08:19:03;5.80;;;5.18;;
64903;SDS011;51401;48.882;12.598;2022-09-01T08:21:28;6.05;;;5.45;;
64903;SDS011;51401;48.882;12.598;2022-09-01T08:23:54;6.05;;;5.45;;
64903;SDS011;51401;48.882;12.598;2022-09-01T08:26:21;5.57;;;5.03;;
64903;SDS011;51401;48.882;12.598;2022-09-01T08:28:48;4.93;;;4.53;;
64903;SDS011;51401;48.882;12.598;2022-09-01T08:31:14;5.18;;;4.25;;
64903;SDS011;51401;48.882;12.598;2022-09-01T08:33:43;4.13;;;3.83;;
64903;SDS011;51401;48.882;12.598;2022-09-01T08:36:11;4.80;;;4.30;;
64903;SDS011;51401;48.882;12.598;2022-09-01T08:38:38;4.70;;;4.22;;
64903;SDS011;51401;48.882;12.598;2022-09-01T08:41:05;4.72;;;4.22;;
64903;SDS011;51401;48.882;12.598;2022-09-01T08:43:57;4.85;;;4.45;;
64903;SDS011;51401;48.882;12.598;2022-09-01T08:46:32;3.72;;;3.33;;
64903;SDS011;51401;48.882;12.598;2022-09-01T08:49:03;5.38;;;3.65;;
64903;SDS011;51401;48.882;12.598;2022-09-01T08:51:48;3.92;;;3.47;;
64903;SDS011;51401;48.882;12.598;2022-09-01T08:54:23;5.57;;;3.88;;
64903;SDS011;51401;48.882;12.598;2022-09-01T08:56:53;3.85;;;3.55;;
64903;SDS011;51401;48.882;12.598;2022-09-01T08:59:23;4.05;;;3.65;;
64903;SDS011;51401;48.882;12.598;2022-09-01T09:02:00;4.20;;;3.58;;
64903;SDS011;51401;48.882;12.598;2022-09-01T09:05:07;4.60;;;4.15;;
64903;SDS011;51401;48.882;12.598;2022-09-01T09:08:09;4.43;;;3.97;;
64903;SDS011;51401;48.882;12.598;2022-09-01T09:16:34;4.10;;;3.80;;
64903;SDS011;51401;48.882;12.598;2022-09-01T09:19:09;6.90;;;3.92;;
64903;SDS011;51401;48.882;12.598;2022-09-01T09:21:41;4.75;;;4.35;;
64903;SDS011;51401;48.882;12.598;2022-09-01T09:24:10;3.90;;;3.53;;
64903;SDS011;51401;48.882;12.598;2022-09-01T09:26:52;4.07;;;3.67;;
64903;SDS011;51401;48.882;12.598;2022-09-01T09:29:18;4.05;;;3.00;;
64903;SDS011;51401;48.882;12.598;2022-09-01T09:31:46;3.80;;;3.35;;
64903;SDS011;51401;48.882;12.598;2022-09-01T09:36:52;3.47;;;3.17;;
64903;SDS011;51401;48.882;12.598;2022-09-01T09:39:18;3.85;;;3.28;;
64903;SDS011;51401;48.882;12.598;2022-09-01T09:41:59;3.42;;;3.10;;
64903;SDS011;51401;48.882;12.598;2022-09-01T09:44:32;3.97;;;3.15;;
64903;SDS011;51401;48.882;12.598;2022-09-01T09:46:58;2.88;;;2.67;;
64903;SDS011;51401;48.882;12.598;2022-09-01T09:49:24;4.00;;;3.00;;
64903;SDS011;51401;48.882;12.598;2022-09-01T09:51:53;5.15;;;3.28;;
64903;SDS011;51401;48.882;12.598;2022-09-01T09:56:47;2.90;;;2.22;;
64903;SDS011;51401;48.882;12.598;2022-09-01T09:59:26;2.40;;;2.10;;
64903;SDS011;51401;48.882;12.598;2022-09-01T10:01:57;2.40;;;2.20;;
64903;SDS011;51401;48.882;12.598;2022-09-01T10:04:34;2.80;;;2.50;;
64903;SDS011;51401;48.882;12.598;2022-09-01T10:07:21;4.75;;;2.50;;
64903;SDS011;51401;48.882;12.598;2022-09-01T10:09:59;2.30;;;2.10;;
64903;SDS011;51401;48.882;12.598;2022-09-01T10:12:28;2.53;;;2.30;;
64903;SDS011;51401;48.882;12.598;2022-09-01T10:14:57;2.58;;;2.38;;
64903;SDS011;51401;48.882;12.598;2022-09-01T10:17:39;3.05;;;2.30;;
64903;SDS011;51401;48.882;12.598;2022-09-01T10:20:08;3.00;;;2.25;;
64903;SDS011;51401;48.882;12.598;2022-09-01T10:22:39;2.83;;;2.63;;
64903;SDS011;51401;48.882;12.598;2022-09-01T10:25:05;3.45;;;2.90;;
64903;SDS011;51401;48.882;12.598;2022-09-01T10:27:36;3.25;;;2.53;;
64903;SDS011;51401;48.882;12.598;2022-09-01T10:30:15;2.60;;;2.40;;
64903;SDS011;51401;48.882;12.598;2022-09-01T10:32:43;3.63;;;2.75;;
64903;SDS011;51401;48.882;12.598;2022-09-01T10:35:21;2.65;;;2.45;;
64903;SDS011;51401;48.882;12.598;2022-09-01T10:37:56;3.72;;;2.60;;
64903;SDS011;51401;48.882;12.598;2022-09-01T10:42:53;3.85;;;3.55;;
64903;SDS011;51401;48.882;12.598;2022-09-01T10:45:34;4.05;;;3.45;;
64903;SDS011;51401;48.882;12.598;2022-09-01T10:48:35;3.80;;;3.50;;
64903;SDS011;51401;48.882;12.598;2022-09-01T10:53:38;3.38;;;3.08;;
64903;SDS011;51401;48.882;12.598;2022-09-01T10:58:47;3.60;;;3.30;;
64903;SDS011;51401;48.882;12.598;2022-09-01T11:04:05;3.72;;;2.78;;
64903;SDS011;51401;48.882;12.598;2022-09-01T11:06:43;2.47;;;2.20;;
64903;SDS011;51401;48.882;12.598;2022-09-01T11:09:17;5.05;;;2.45;;
64903;SDS011;51401;48.882;12.598;2022-09-01T11:14:30;2.95;;;2.30;;
64903;SDS011;51401;48.882;12.598;2022-09-01T11:30:18;3.08;;;2.00;;
64903;SDS011;51401;48.882;12.598;2022-09-01T11:32:47;3.35;;;2.85;;
64903;SDS011;51401;48.882;12.598;2022-09-01T11:35:18;3.13;;;2.20;;
64903;SDS011;51401;48.882;12.598;2022-09-01T11:37:48;2.67;;;2.47;;
64903;SDS011;51401;48.882;12.598;2022-09-01T11:40:19;2.30;;;2.10;;
64903;SDS011;51401;48.882;12.598;2022-09-01T11:42:50;2.38;;;2.00;;
64903;SDS011;51401;48.882;12.598;2022-09-01T11:47:59;3.50;;;2.33;;
64903;SDS011;51401;48.882;12.598;2022-09-01T11:52:57;2.88;;;2.50;;
64903;SDS011;51401;48.882;12.598;2022-09-01T11:55:28;3.28;;;1.92;;
64903;SDS011;51401;48.882;12.598;2022-09-01T11:57:54;4.72;;;2.13;;
64903;SDS011;51401;48.882;12.598;2022-09-01T12:00:24;2.55;;;2.22;;
64903;SDS011;51401;48.882;12.598;2022-09-01T12:02:52;2.50;;;2.28;;
64903;SDS011;51401;48.882;12.598;2022-09-01T12:05:29;4.55;;;2.28;;
64903;SDS011;51401;48.882;12.598;2022-09-01T12:07:56;3.40;;;2.22;;
64903;SDS011;51401;48.882;12.598;2022-09-01T12:13:01;2.38;;;2.10;;
64903;SDS011;51401;48.882;12.598;2022-09-01T12:15:28;3.17;;;2.15;;
64903;SDS011;51401;48.882;12.598;2022-09-01T12:18:07;3.80;;;2.33;;
64903;SDS011;51401;48.882;12.598;2022-09-01T12:23:33;4.53;;;2.53;;
64903;SDS011;51401;48.882;12.598;2022-09-01T12:26:04;2.83;;;2.35;;
64903;SDS011;51401;48.882;12.598;2022-09-01T12:28:32;2.55;;;1.90;;
64903;SDS011;51401;48.882;12.598;2022-09-01T12:31:00;2.10;;;1.90;;
64903;SDS011;51401;48.882;12.598;2022-09-01T12:33:29;3.03;;;1.92;;
64903;SDS011;51401;48.882;12.598;2022-09-01T12:38:39;2.00;;;1.80;;
64903;SDS011;51401;48.882;12.598;2022-09-01T12:41:21;2.53;;;2.13;;
64903;SDS011;51401;48.882;12.598;2022-09-01T12:43:48;2.75;;;1.90;;
64903;SDS011;51401;48.882;12.598;2022-09-01T12:46:37;2.05;;;1.85;;
64903;SDS011;51401;48.882;12.598;2022-09-01T12:49:21;2.22;;;2.00;;
64903;SDS011;51401;48.882;12.598;2022-09-01T12:51:49;2.30;;;2.10;;
64903;SDS011;51401;48.882;12.598;2022-09-01T12:54:29;2.00;;;1.80;;
64903;SDS011;51401;48.882;12.598;2022-09-01T12:56:54;2.10;;;1.90;;
64903;SDS011;51401;48.882;12.598;2022-09-01T12:59:22;2.50;;;2.00;;
64903;SDS011;51401;48.882;12.598;2022-09-01T13:01:49;2.13;;;1.92;;
64903;SDS011;51401;48.882;12.598;2022-09-01T13:06:46;2.53;;;2.17;;
64903;SDS011;51401;48.882;12.598;2022-09-01T13:09:13;3.38;;;2.30;;
64903;SDS011;51401;48.882;12.598;2022-09-01T13:11:38;2.40;;;2.20;;
64903;SDS011;51401;48.882;12.598;2022-09-01T13:14:06;2.40;;;2.20;;
64903;SDS011;51401;48.882;12.598;2022-09-01T13:16:32;2.70;;;2.42;;
64903;SDS011;51401;48.882;12.598;2022-09-01T13:18:57;2.67;;;2.47;;
64903;SDS011;51401;48.882;12.598;2022-09-01T13:21:23;2.75;;;2.20;;
64903;SDS011;51401;48.882;12.598;2022-09-01T13:23:48;2.67;;;2.20;;
64903;SDS011;51401;48.882;12.598;2022-09-01T13:26:14;2.47;;;2.28;;
64903;SDS011;51401;48.882;12.598;2022-09-01T13:28:39;3.03;;;2.20;;
64903;SDS011;51401;48.882;12.598;2022-09-01T13:31:05;2.10;;;1.90;;
64903;SDS011;51401;48.882;12.598;2022-09-01T13:33:31;2.70;;;2.20;;
64903;SDS011;51401;48.882;12.598;2022-09-01T13:35:58;2.40;;;2.20;;
64903;SDS011;51401;48.882;12.598;2022-09-01T13:38:23;1.92;;;1.70;;
64903;SDS011;51401;48.882;12.598;2022-09-01T13:40:49;2.50;;;2.30;;
64903;SDS011;51401;48.882;12.598;2022-09-01T13:43:16;2.70;;;2.10;;
64903;SDS011;51401;48.882;12.598;2022-09-01T13:45:44;2.53;;;1.98;;
64903;SDS011;51401;48.882;12.598;2022-09-01T13:48:10;2.25;;;2.10;;
64903;SDS011;51401;48.882;12.598;2022-09-01T13:50:36;3.92;;;2.20;;
64903;SDS011;51401;48.882;12.598;2022-09-01T13:53:02;2.20;;;2.00;;
64903;SDS011;51401;48.882;12.598;2022-09-01T13:55:29;2.95;;;2.10;;
64903;SDS011;51401;48.882;12.598;2022-09-01T13:57:57;2.35;;;1.95;;
64903;SDS011;51401;48.882;12.598;2022-09-01T14:00:24;2.10;;;1.90;;
64903;SDS011;51401;48.882;12.598;2022-09-01T14:02:54;2.28;;;2.08;;
64903;SDS011;51401;48.882;12.598;2022-09-01T14:05:22;3.47;;;1.90;;
64903;SDS011;51401;48.882;12.598;2022-09-01T14:07:50;2.20;;;2.00;;
64903;SDS011;51401;48.882;12.598;2022-09-01T14:10:16;2.35;;;1.70;;
64903;SDS011;51401;48.882;12.598;2022-09-01T14:12:42;1.83;;;1.73;;
64903;SDS011;51401;48.882;12.598;2022-09-01T14:15:09;2.58;;;1.88;;
64903;SDS011;51401;48.882;12.598;2022-09-01T14:17:36;2.17;;;2.08;;
64903;SDS011;51401;48.882;12.598;2022-09-01T14:20:03;3.15;;;2.13;;
64903;SDS011;51401;48.882;12.598;2022-09-01T14:22:30;2.55;;;2.35;;
64903;SDS011;51401;48.882;12.598;2022-09-01T14:24:57;2.72;;;2.47;;
64903;SDS011;51401;48.882;12.598;2022-09-01T14:27:23;2.63;;;2.42;;
64903;SDS011;51401;48.882;12.598;2022-09-01T14:29:49;3.65;;;2.25;;
64903;SDS011;51401;48.882;12.598;2022-09-01T14:32:16;2.67;;;2.47;;
64903;SDS011;51401;48.882;12.598;2022-09-01T14:34:51;3.45;;;2.50;;
64903;SDS011;51401;48.882;12.598;2022-09-01T14:37:18;2.80;;;2.30;;
64903;SDS011;51401;48.882;12.598;2022-09-01T14:39:48;3.10;;;2.08;;
64903;SDS011;51401;48.882;12.598;2022-09-01T14:42:17;2.40;;;2.20;;
64903;SDS011;51401;48.882;12.598;2022-09-01T14:44:43;2.40;;;2.20;;
64903;SDS011;51401;48.882;12.598;2022-09-01T14:47:09;2.90;;;2.60;;
64903;SDS011;51401;48.882;12.598;2022-09-01T14:49:35;2.38;;;2.17;;
64903;SDS011;51401;48.882;12.598;2022-09-01T14:52:04;2.25;;;2.05;;
64903;SDS011;51401;48.882;12.598;2022-09-01T14:54:32;2.42;;;2.22;;
64903;SDS011;51401;48.882;12.598;2022-09-01T14:56:58;2.67;;;2.40;;
64903;SDS011;51401;48.882;12.598;2022-09-01T14:59:25;2.42;;;2.22;;
64903;SDS011;51401;48.882;12.598;2022-09-01T15:01:50;2.78;;;2.38;;
64903;SDS011;51401;48.882;12.598;2022-09-01T15:04:16;4.05;;;2.40;;
64903;SDS011;51401;48.882;12.598;2022-09-01T15:06:41;2.75;;;2.55;;
64903;SDS011;51401;48.882;12.598;2022-09-01T15:09:07;2.65;;;2.30;;
64903;SDS011;51401;48.882;12.598;2022-09-01T15:11:32;2.92;;;2.63;;
64903;SDS011;51401;48.882;12.598;2022-09-01T15:13:58;2.83;;;2.60;;
64903;SDS011;51401;48.882;12.598;2022-09-01T15:16:24;2.97;;;2.40;;
64903;SDS011;51401;48.882;12.598;2022-09-01T15:18:51;2.67;;;2.47;;
64903;SDS011;51401;48.882;12.598;2022-09-01T15:23:46;2.55;;;2.35;;
64903;SDS011;51401;48.882;12.598;2022-09-01T15:26:12;3.58;;;2.45;;
64903;SDS011;51401;48.882;12.598;2022-09-01T15:28:40;3.88;;;2.78;;
64903;SDS011;51401;48.882;12.598;2022-09-01T15:31:05;2.60;;;2.38;;
64903;SDS011;51401;48.882;12.598;2022-09-01T15:33:31;2.55;;;2.30;;
64903;SDS011;51401;48.882;12.598;2022-09-01T15:35:56;2.70;;;2.50;;
64903;SDS011;51401;48.882;12.598;2022-09-01T15:38:21;3.03;;;2.75;;
64903;SDS011;51401;48.882;12.598;2022-09-01T15:40:47;3.00;;;2.70;;
64903;SDS011;51401;48.882;12.598;2022-09-01T15:43:12;2.30;;;2.10;;
64903;SDS011;51401;48.882;12.598;2022-09-01T15:45:38;4.32;;;2.40;;
64903;SDS011;51401;48.882;12.598;2022-09-01T15:48:04;2.72;;;2.53;;
64903;SDS011;51401;48.882;12.598;2022-09-01T15:50:29;3.97;;;2.60;;
64903;SDS011;51401;48.882;12.598;2022-09-01T15:52:57;2.53;;;2.33;;
64903;SDS011;51401;48.882;12.598;2022-09-01T15:55:26;2.35;;;2.15;;